createdAt,value
2022-10-28T00:00:12.268Z,173.20
2022-10-28T00:02:45.812Z,366.60
2022-10-28T00:05:20.038Z,81.60
2022-10-28T00:07:52.890Z,309.80
2022-10-28T00:10:25.826Z,364.10
2022-10-28T00:12:58.278Z,328.20
2022-10-28T00:15:31.507Z,270.70
2022-10-28T00:18:04.384Z,57.70
2022-10-28T00:20:37.391Z,58.40
2022-10-28T00:23:10.828Z,82.30
2022-10-28T00:25:43.450Z,26.10
2022-10-28T00:28:16.008Z,49.40
2022-10-28T00:30:48.651Z,305.50
2022-10-28T00:33:21.167Z,79.70
2022-10-28T00:35:55.398Z,106.40
2022-10-28T00:38:29.078Z,353.80
2022-10-28T00:41:01.692Z,514.70
2022-10-28T00:43:42.699Z,396.40
2022-10-28T00:46:21.716Z,423.10
2022-10-28T00:48:57.337Z,300.70
2022-10-28T00:51:31.945Z,313.40
2022-10-28T00:54:06.436Z,199.60
2022-10-28T00:56:44.950Z,306.70
2022-10-28T00:59:21.537Z,121.60
2022-10-28T01:01:54.672Z,63.90
2022-10-28T01:04:27.407Z,156.30
2022-10-28T01:07:01.907Z,38.10
2022-10-28T01:09:34.768Z,20.70
2022-10-28T01:12:19.878Z,28.00
2022-10-28T01:15:11.448Z,24.50
2022-10-28T01:18:02.458Z,19.50
2022-10-28T01:21:03.495Z,21.10
2022-10-28T01:23:45.998Z,31.80
2022-10-28T01:26:40.177Z,22.90
2022-10-28T01:29:37.267Z,22.90
2022-10-28T01:32:29.387Z,28.50
2022-10-28T01:35:10.727Z,27.30
2022-10-28T01:37:54.945Z,58.00
2022-10-28T01:40:35.918Z,28.50
2022-10-28T01:43:14.548Z,74.30
2022-10-28T01:45:58.087Z,18.20
2022-10-28T01:51:19.067Z,23.00
2022-10-28T01:53:57.163Z,22.30
2022-10-28T01:56:35.547Z,22.00
2022-10-28T01:59:11.117Z,26.50
2022-10-28T02:01:44.201Z,22.90
2022-10-28T02:04:16.827Z,26.20
2022-10-28T02:06:53.718Z,30.10
2022-10-28T02:09:38.909Z,20.70
2022-10-28T02:12:27.653Z,23.30
2022-10-28T02:15:27.878Z,26.50
2022-10-28T02:18:22.227Z,28.90
2022-10-28T02:23:38.748Z,16.30
2022-10-28T02:26:18.890Z,18.30
2022-10-28T02:28:57.827Z,21.10
2022-10-28T02:31:35.305Z,45.30
2022-10-28T02:34:13.827Z,50.40
2022-10-28T02:36:52.337Z,31.30
2022-10-28T02:39:30.188Z,21.20
2022-10-28T02:42:07.448Z,20.80
2022-10-28T02:44:46.977Z,18.70
2022-10-28T02:47:24.839Z,20.60
2022-10-28T02:50:01.672Z,26.10
2022-10-28T02:52:36.495Z,31.00
2022-10-28T02:55:11.717Z,22.20
2022-10-28T02:57:48.815Z,16.50
2022-10-28T03:00:24.908Z,19.10
2022-10-28T03:02:57.342Z,21.40
2022-10-28T03:05:30.089Z,24.10
2022-10-28T03:08:02.588Z,22.80
2022-10-28T03:10:36.979Z,25.20
2022-10-28T03:13:09.429Z,30.50
2022-10-28T03:15:42.028Z,56.20
2022-10-28T03:18:14.537Z,27.70
2022-10-28T03:20:47.588Z,28.10
2022-10-28T03:23:20.088Z,26.00
2022-10-28T03:25:52.691Z,24.40
2022-10-28T03:28:25.218Z,25.90
2022-10-28T03:30:57.868Z,32.00
2022-10-28T03:33:30.568Z,27.60
2022-10-28T03:36:03.474Z,29.40
2022-10-28T03:38:36.075Z,104.80
2022-10-28T03:41:08.889Z,70.90
2022-10-28T03:43:41.297Z,63.20
2022-10-28T03:46:14.378Z,26.90
2022-10-28T03:48:46.999Z,27.10
2022-10-28T03:51:23.127Z,31.20
2022-10-28T03:53:55.770Z,57.90
2022-10-28T03:56:28.468Z,27.00
2022-10-28T03:59:01.239Z,42.60
2022-10-28T04:01:34.133Z,48.60
2022-10-28T04:04:07.198Z,119.10
2022-10-28T04:06:39.889Z,99.00
2022-10-28T04:09:12.309Z,26.90
2022-10-28T04:11:45.250Z,24.00
2022-10-28T04:14:20.179Z,27.70
2022-10-28T04:16:53.140Z,25.90
2022-10-28T04:19:25.798Z,43.70
2022-10-28T04:21:58.718Z,52.20
2022-10-28T04:24:31.438Z,238.30
2022-10-28T04:27:04.549Z,310.30
2022-10-28T04:29:36.986Z,225.70
2022-10-28T04:32:12.387Z,30.10
2022-10-28T04:34:44.727Z,35.10
2022-10-28T04:37:20.405Z,41.40
2022-10-28T04:39:53.268Z,21.60
2022-10-28T04:42:26.738Z,21.50
2022-10-28T04:44:59.208Z,23.10
2022-10-28T04:47:31.998Z,22.00
2022-10-28T04:50:04.998Z,22.50
2022-10-28T04:52:37.996Z,19.20
2022-10-28T04:55:11.479Z,24.90
2022-10-28T05:00:16.356Z,19.30
2022-10-28T05:02:49.418Z,20.80
2022-10-28T05:05:22.334Z,21.00
2022-10-28T05:07:56.353Z,19.70
2022-10-28T05:10:30.278Z,18.80
2022-10-28T05:13:02.898Z,17.70
2022-10-28T05:15:35.711Z,19.40
2022-10-28T05:20:40.305Z,16.30
2022-10-28T05:23:13.408Z,17.70
2022-10-28T05:25:46.260Z,16.20
2022-10-28T05:28:20.478Z,20.10
2022-10-28T05:30:52.857Z,18.70
2022-10-28T05:33:26.639Z,17.20
2022-10-28T05:36:00.037Z,17.70
2022-10-28T05:38:33.209Z,15.40
2022-10-28T05:41:05.959Z,16.20
2022-10-28T05:43:40.448Z,19.90
2022-10-28T05:46:13.039Z,14.70
2022-10-28T05:48:45.787Z,17.30
2022-10-28T05:51:18.418Z,15.20
2022-10-28T05:53:51.953Z,14.20
2022-10-28T05:56:24.888Z,13.30
2022-10-28T05:58:58.367Z,21.10
2022-10-28T06:01:33.851Z,14.80
2022-10-28T06:04:06.938Z,13.40
2022-10-28T06:06:39.752Z,13.80
2022-10-28T06:09:15.678Z,12.70
2022-10-28T06:11:47.794Z,13.70
2022-10-28T06:14:20.668Z,11.00
2022-10-28T06:16:53.629Z,13.20
2022-10-28T06:19:28.638Z,12.50
2022-10-28T06:22:01.251Z,13.50
2022-10-28T06:24:34.125Z,11.50
2022-10-28T06:27:06.965Z,11.80
2022-10-28T06:29:39.768Z,14.20
2022-10-28T06:32:14.572Z,13.10
2022-10-28T06:34:49.521Z,13.40
2022-10-28T06:37:23.455Z,13.80
2022-10-28T06:39:57.645Z,15.10
2022-10-28T06:42:34.562Z,11.10
2022-10-28T06:45:08.798Z,14.20
2022-10-28T06:47:44.458Z,13.10
2022-10-28T06:50:17.149Z,13.50
2022-10-28T06:52:49.709Z,14.10
2022-10-28T06:55:22.358Z,13.60
2022-10-28T06:57:55.140Z,12.80
2022-10-28T07:00:28.451Z,10.70
2022-10-28T07:03:01.592Z,12.80
2022-10-28T07:05:34.892Z,10.50
2022-10-28T07:08:08.053Z,8.40
2022-10-28T07:10:40.997Z,10.70
2022-10-28T07:13:13.601Z,10.60
2022-10-28T07:15:46.699Z,12.10
2022-10-28T07:18:19.303Z,10.20
2022-10-28T07:20:53.793Z,10.90
2022-10-28T07:23:26.516Z,12.20
2022-10-28T07:26:00.295Z,10.60
2022-10-28T07:28:38.348Z,9.40
2022-10-28T07:33:55.067Z,11.50
2022-10-28T07:36:30.852Z,10.30
2022-10-28T07:39:03.534Z,8.60
2022-10-28T07:41:39.190Z,10.80
2022-10-28T07:44:11.873Z,9.40
2022-10-28T07:46:44.696Z,12.60
2022-10-28T07:49:17.842Z,9.90
2022-10-28T07:51:51.475Z,10.50
2022-10-28T07:54:24.162Z,7.90
2022-10-28T07:56:56.969Z,10.20
2022-10-28T07:59:29.735Z,11.10
2022-10-28T08:02:02.583Z,10.10
2022-10-28T08:04:35.830Z,9.90
2022-10-28T08:07:10.176Z,10.10
2022-10-28T08:09:43.032Z,10.10
2022-10-28T08:12:17.341Z,8.60
2022-10-28T08:14:49.687Z,8.20
2022-10-28T08:17:23.005Z,7.80
2022-10-28T08:19:55.492Z,9.30
2022-10-28T08:22:28.405Z,8.20
2022-10-28T08:25:00.946Z,9.80
2022-10-28T08:27:33.731Z,8.40
2022-10-28T08:30:07.254Z,9.70
2022-10-28T08:35:12.127Z,7.50
2022-10-28T08:37:46.588Z,8.10
2022-10-28T08:40:21.068Z,10.30
2022-10-28T08:42:58.897Z,7.20
2022-10-28T08:45:44.597Z,7.60
2022-10-28T08:48:28.360Z,7.90
2022-10-28T08:51:08.101Z,8.40
2022-10-28T08:53:46.770Z,8.80
2022-10-28T08:56:27.436Z,6.60
2022-10-28T08:59:04.381Z,7.60
2022-10-28T09:01:44.662Z,6.50
2022-10-28T09:04:30.097Z,8.70
2022-10-28T09:07:02.957Z,9.00
2022-10-28T09:09:36.129Z,9.10
2022-10-28T09:12:24.921Z,11.50
2022-10-28T09:15:15.942Z,11.50
2022-10-28T09:17:56.540Z,8.20
2022-10-28T09:20:42.239Z,13.00
2022-10-28T09:23:23.034Z,8.50
2022-10-28T09:26:12.273Z,7.70
2022-10-28T09:29:00.642Z,6.20
2022-10-28T09:31:38.371Z,7.60
2022-10-28T09:34:26.541Z,8.30
2022-10-28T09:37:06.523Z,6.90
2022-10-28T09:39:46.080Z,9.20
2022-10-28T09:42:24.116Z,7.70
2022-10-28T09:45:00.800Z,10.00
2022-10-28T09:47:38.381Z,10.40
2022-10-28T09:50:19.131Z,8.40
2022-10-28T09:53:01.110Z,7.10
2022-10-28T09:55:34.414Z,8.40
2022-10-28T09:58:27.066Z,7.20
2022-10-28T10:00:59.680Z,8.20
2022-10-28T10:03:32.961Z,7.90
2022-10-28T10:06:14.051Z,9.10
2022-10-28T10:08:48.110Z,10.40
2022-10-28T10:11:29.643Z,8.70
2022-10-28T10:14:06.843Z,8.60
2022-10-28T10:16:44.726Z,6.50
2022-10-28T10:19:17.748Z,9.70
2022-10-28T10:21:52.942Z,10.30
2022-10-28T10:24:33.003Z,10.90
2022-10-28T10:27:16.223Z,8.30
2022-10-28T10:29:51.173Z,7.00
2022-10-28T10:32:28.116Z,8.80
2022-10-28T10:35:09.727Z,7.70
2022-10-28T10:37:47.747Z,7.70
2022-10-28T10:40:27.544Z,8.50
2022-10-28T10:43:15.976Z,8.20
2022-10-28T10:45:55.574Z,6.80
2022-10-28T10:48:28.394Z,7.20
2022-10-28T10:51:06.628Z,7.10
2022-10-28T10:53:40.194Z,5.70
2022-10-28T10:56:24.670Z,9.40
2022-10-28T10:59:01.655Z,10.80
2022-10-28T11:01:41.510Z,6.60
2022-10-28T11:04:21.633Z,5.70
2022-10-28T11:06:56.446Z,5.80
2022-10-28T11:09:35.494Z,4.30
2022-10-28T11:12:26.753Z,6.00
2022-10-28T11:15:01.704Z,4.70
2022-10-28T11:17:38.059Z,8.10
2022-10-28T11:20:28.176Z,7.30
2022-10-28T11:23:15.985Z,4.70
2022-10-28T11:25:51.115Z,7.20
2022-10-28T11:28:51.036Z,4.20
2022-10-28T11:31:45.194Z,5.90
2022-10-28T11:34:36.954Z,4.20
2022-10-28T11:37:17.585Z,5.00
2022-10-28T11:40:05.651Z,3.70
2022-10-28T11:42:48.163Z,4.50
2022-10-28T11:45:31.845Z,3.20
2022-10-28T11:48:18.455Z,6.00
2022-10-28T11:51:01.477Z,8.20
2022-10-28T11:54:01.485Z,5.10
2022-10-28T11:56:40.138Z,4.70
2022-10-28T11:59:35.404Z,4.70
2022-10-28T12:02:28.337Z,4.20
2022-10-28T12:05:13.795Z,5.40
2022-10-28T12:08:01.465Z,4.00
2022-10-28T12:10:44.505Z,7.50
2022-10-28T12:13:29.425Z,3.80
2022-10-28T12:16:09.177Z,4.60
2022-10-28T12:18:53.381Z,5.50
2022-10-28T12:24:14.162Z,4.60
2022-10-28T12:26:50.856Z,5.20
2022-10-28T12:29:28.715Z,6.30
2022-10-28T12:32:06.867Z,5.70
2022-10-28T12:34:46.696Z,5.50
2022-10-28T12:37:23.865Z,4.50
2022-10-28T12:40:03.629Z,5.70
2022-10-28T12:42:40.559Z,5.30
2022-10-28T12:45:19.103Z,7.60
2022-10-28T12:47:57.538Z,8.30
2022-10-28T12:50:36.234Z,5.70
2022-10-28T12:53:26.472Z,4.50
2022-10-28T12:56:02.391Z,6.20
2022-10-28T12:58:40.174Z,6.80
2022-10-28T13:01:15.896Z,7.10
2022-10-28T13:03:50.974Z,5.50
2022-10-28T13:06:51.123Z,7.40
2022-10-28T13:09:47.105Z,6.50
2022-10-28T13:12:55.307Z,7.90
2022-10-28T13:15:47.274Z,5.80
2022-10-28T13:19:00.971Z,6.50
2022-10-28T13:21:55.578Z,5.30
2022-10-28T13:24:36.354Z,9.80
2022-10-28T13:27:12.787Z,8.50
2022-10-28T13:29:51.625Z,6.50
2022-10-28T13:32:38.774Z,9.30
2022-10-28T13:35:26.605Z,9.60
2022-10-28T13:38:00.453Z,7.60
2022-10-28T13:41:07.310Z,7.60
2022-10-28T13:44:02.200Z,8.70
2022-10-28T13:47:21.014Z,8.00
2022-10-28T13:50:27.492Z,9.40
2022-10-28T13:53:43.145Z,6.40
2022-10-28T13:56:38.807Z,9.60
2022-10-28T13:59:24.223Z,12.80
2022-10-28T14:02:32.427Z,8.00
2022-10-28T14:05:01.288Z,11.10
2022-10-28T14:07:36.763Z,9.20
2022-10-28T14:10:27.163Z,8.70
2022-10-28T14:13:02.436Z,8.00
2022-10-28T14:15:36.482Z,9.30
2022-10-28T14:21:18.113Z,10.20
2022-10-28T14:24:33.281Z,12.00
2022-10-28T14:27:33.031Z,10.90
2022-10-28T14:30:25.960Z,7.70
2022-10-28T14:33:21.352Z,12.10
2022-10-28T14:36:09.551Z,7.50
2022-10-28T14:39:33.952Z,6.90
2022-10-28T14:42:23.461Z,7.80
2022-10-28T14:45:09.678Z,9.70
2022-10-28T14:47:59.202Z,8.50
2022-10-28T14:50:40.370Z,9.20
2022-10-28T14:53:20.439Z,8.00
2022-10-28T14:55:59.409Z,6.30
2022-10-28T14:58:39.179Z,7.90
2022-10-28T15:01:28.200Z,7.40
2022-10-28T15:04:03.349Z,11.00
2022-10-28T15:06:42.999Z,11.50
2022-10-28T15:09:22.159Z,11.30
2022-10-28T15:11:59.564Z,11.40
2022-10-28T15:14:37.008Z,12.80
2022-10-28T15:17:16.827Z,14.90
2022-10-28T15:19:52.972Z,15.30
2022-10-28T15:22:31.019Z,17.20
2022-10-28T15:25:06.469Z,12.00
2022-10-28T15:27:40.920Z,12.00
2022-10-28T15:30:19.479Z,10.60
2022-10-28T15:32:52.007Z,7.80
2022-10-28T15:35:43.845Z,9.00
2022-10-28T15:38:45.628Z,10.10
2022-10-28T15:41:52.942Z,20.00
2022-10-28T15:44:40.317Z,18.80
2022-10-28T15:47:26.938Z,11.00
2022-10-28T15:50:22.640Z,10.70
2022-10-28T15:52:57.728Z,9.00
2022-10-28T15:55:54.707Z,10.20
2022-10-28T15:58:43.180Z,12.50
2022-10-28T16:01:32.583Z,13.70
2022-10-28T16:04:05.667Z,14.30
2022-10-28T16:06:41.728Z,15.40
2022-10-28T16:09:27.018Z,23.00
2022-10-28T16:12:02.520Z,27.30
2022-10-28T16:14:40.639Z,17.80
2022-10-28T16:17:18.697Z,25.20
2022-10-28T16:19:57.692Z,73.70
2022-10-28T16:22:35.737Z,48.60
2022-10-28T16:25:16.951Z,37.10
2022-10-28T16:27:52.226Z,31.50
2022-10-28T16:30:25.152Z,17.20
2022-10-28T16:32:58.252Z,14.70
2022-10-28T16:35:31.125Z,13.30
2022-10-28T16:38:04.567Z,29.30
2022-10-28T16:40:51.078Z,15.40
2022-10-28T16:43:25.555Z,14.50
2022-10-28T16:45:59.250Z,19.30
2022-10-28T16:48:32.727Z,21.10
2022-10-28T16:51:07.513Z,22.50
2022-10-28T16:53:41.378Z,20.50
2022-10-28T16:56:16.046Z,16.90
2022-10-28T16:58:49.687Z,16.20
2022-10-28T17:01:25.296Z,13.40
2022-10-28T17:04:09.000Z,13.50
2022-10-28T17:06:45.018Z,11.60
2022-10-28T17:09:18.978Z,11.00
2022-10-28T17:11:52.828Z,10.10
2022-10-28T17:14:29.847Z,13.10
2022-10-28T17:17:02.930Z,12.10
2022-10-28T17:19:36.229Z,13.10
2022-10-28T17:22:10.807Z,12.50
2022-10-28T17:24:43.739Z,11.40
2022-10-28T17:27:17.447Z,12.80
2022-10-28T17:32:25.599Z,13.00
2022-10-28T17:34:59.225Z,15.00
2022-10-28T17:37:33.143Z,14.00
2022-10-28T17:40:06.648Z,15.70
2022-10-28T17:45:19.427Z,13.90
2022-10-28T17:47:53.828Z,14.50
2022-10-28T17:50:26.583Z,18.60
2022-10-28T17:52:59.131Z,15.50
2022-10-28T17:55:31.718Z,16.30
2022-10-28T17:58:04.338Z,15.40
2022-10-28T18:00:37.238Z,17.20
2022-10-28T18:03:11.402Z,17.80
2022-10-28T18:05:44.090Z,58.70
2022-10-28T18:08:16.561Z,37.50
2022-10-28T18:10:57.728Z,30.90
2022-10-28T18:13:32.400Z,21.70
2022-10-28T18:16:09.762Z,17.10
2022-10-28T18:18:43.015Z,19.20
2022-10-28T18:23:52.388Z,18.40
2022-10-28T18:26:27.938Z,21.70
2022-10-28T18:29:04.258Z,19.40
2022-10-28T18:31:44.866Z,17.80
2022-10-28T18:34:19.082Z,20.30
2022-10-28T18:36:52.188Z,19.10
2022-10-28T18:39:25.228Z,18.20
2022-10-28T18:41:58.262Z,18.00
2022-10-28T18:44:32.348Z,18.30
2022-10-28T18:47:04.999Z,20.50
2022-10-28T18:49:37.608Z,16.40
2022-10-28T18:52:10.518Z,21.50
2022-10-28T18:54:43.059Z,20.80
2022-10-28T18:57:17.449Z,15.10
2022-10-28T19:00:17.501Z,17.70
2022-10-28T19:02:47.724Z,18.40
2022-10-28T19:05:21.938Z,21.00
2022-10-28T19:08:03.078Z,19.20
2022-10-28T19:10:36.072Z,16.80
2022-10-28T19:13:09.112Z,18.80
2022-10-28T19:15:47.239Z,17.10
2022-10-28T19:18:22.781Z,22.80
2022-10-28T19:20:57.518Z,19.30
2022-10-28T19:23:33.708Z,17.10
2022-10-28T19:26:13.411Z,23.10
2022-10-28T19:28:48.594Z,15.40
2022-10-28T19:31:29.988Z,21.00
2022-10-28T19:34:03.401Z,24.50
2022-10-28T19:36:39.969Z,18.70
2022-10-28T19:39:12.659Z,21.70
2022-10-28T19:41:45.499Z,20.50
2022-10-28T19:44:19.098Z,16.80
2022-10-28T19:46:52.288Z,21.50
2022-10-28T19:52:02.989Z,15.60
2022-10-28T19:54:41.132Z,16.60
2022-10-28T19:59:51.530Z,20.20
2022-10-28T20:04:57.680Z,18.70
2022-10-28T20:07:32.743Z,17.30
2022-10-28T20:10:05.872Z,16.50
2022-10-28T20:12:38.579Z,20.20
2022-10-28T20:15:17.271Z,16.40
2022-10-28T20:17:49.961Z,16.10
2022-10-28T20:20:22.527Z,19.10
2022-10-28T20:22:55.118Z,18.20
2022-10-28T20:25:28.119Z,23.30
2022-10-28T20:28:00.507Z,17.60
2022-10-28T20:30:36.169Z,19.60
2022-10-28T20:33:10.219Z,22.00
2022-10-28T20:35:43.043Z,20.80
2022-10-28T20:38:15.585Z,18.10
2022-10-28T20:40:52.169Z,20.10
2022-10-28T20:43:27.329Z,21.00
2022-10-28T20:46:01.729Z,20.60
2022-10-28T20:48:34.429Z,20.10
2022-10-28T20:51:07.558Z,18.80
2022-10-28T20:53:40.930Z,18.00
2022-10-28T20:56:19.118Z,19.90
2022-10-28T20:58:51.870Z,19.90
2022-10-28T21:01:27.176Z,17.60
2022-10-28T21:04:01.302Z,15.90
2022-10-28T21:06:54.047Z,18.00
2022-10-28T21:09:26.497Z,23.00
2022-10-28T21:12:01.931Z,17.60
2022-10-28T21:14:34.617Z,16.90
2022-10-28T21:17:07.407Z,18.30
2022-10-28T21:19:40.068Z,19.60
2022-10-28T21:22:14.129Z,16.80
2022-10-28T21:24:46.940Z,17.80
2022-10-28T21:27:19.648Z,16.60
2022-10-28T21:29:52.591Z,20.30
2022-10-28T21:32:25.640Z,18.70
2022-10-28T21:34:58.579Z,18.70
2022-10-28T21:37:32.679Z,20.20
2022-10-28T21:40:05.850Z,18.60
2022-10-28T21:42:39.169Z,20.50
2022-10-28T21:45:12.778Z,20.50
2022-10-28T21:47:47.979Z,17.30
2022-10-28T21:50:21.969Z,18.80
2022-10-28T21:55:45.785Z,21.60
2022-10-28T21:58:19.869Z,22.20
2022-10-28T22:00:52.402Z,19.50
2022-10-28T22:03:25.148Z,21.00
2022-10-28T22:05:57.679Z,22.20
2022-10-28T22:08:30.540Z,20.90
2022-10-28T22:11:04.798Z,17.30
2022-10-28T22:13:37.549Z,18.70
2022-10-28T22:16:14.433Z,18.10
2022-10-28T22:18:48.013Z,19.40
2022-10-28T22:23:52.980Z,18.50
2022-10-28T22:26:28.306Z,19.20
2022-10-28T22:29:01.648Z,23.00
2022-10-28T22:31:35.508Z,19.20
2022-10-28T22:34:08.518Z,20.50
2022-10-28T22:36:43.558Z,18.20
2022-10-28T22:39:16.331Z,21.40
2022-10-28T22:41:48.937Z,19.50
2022-10-28T22:44:21.564Z,18.20
2022-10-28T22:46:54.150Z,19.50
2022-10-28T22:49:27.534Z,19.20
2022-10-28T22:52:00.960Z,21.00
2022-10-28T22:54:33.676Z,19.90
2022-10-28T22:57:07.778Z,24.00
2022-10-28T22:59:40.692Z,17.70
2022-10-28T23:02:13.314Z,20.60
2022-10-28T23:04:46.259Z,19.80
2022-10-28T23:07:18.984Z,19.30
2022-10-28T23:09:51.608Z,19.40
2022-10-28T23:12:24.533Z,18.70
2022-10-28T23:14:59.061Z,21.70
2022-10-28T23:17:31.838Z,19.00
2022-10-28T23:20:04.609Z,21.40
2022-10-28T23:22:37.858Z,18.30
2022-10-28T23:25:12.017Z,19.00
2022-10-28T23:27:44.869Z,16.10
2022-10-28T23:30:18.146Z,19.50
2022-10-28T23:32:50.749Z,19.70
2022-10-28T23:35:23.358Z,17.10
2022-10-28T23:37:56.326Z,17.20
2022-10-28T23:40:29.738Z,17.00
2022-10-28T23:43:02.598Z,17.40
2022-10-28T23:45:35.209Z,16.00
2022-10-28T23:48:08.338Z,18.20
2022-10-28T23:50:41.248Z,16.70
2022-10-28T23:53:13.960Z,18.90
2022-10-28T23:58:20.560Z,17.60
